ADDS TAF Board (Experimental) INFO

IDs: Format: Expanded Condensed

Updated at: 0017 UTC 26 Oct 2014

KSAN - San Diego Intl Arpt, CA, US

Issued at 2337 UTC 25 Oct 2014
Time2351Z26/01Z26/02Z26/03Z26/04Z26/05Z26/06Z26/07Z26/08Z26/09Z26/10Z26/11Z26/12Z26/13Z
TypeOBSPRVLPRVLPRVLPRVLPRVLPRVLPRVLPRVLPRVLPRVLPRVLPRVLPRVL
VIS10>6>6>6>6>6>6>6>6>6>6>6>6>6
CIG----------171717171717171717
CoverSCTFEWSCTSCTSCTBKNBKNBKNBKNBKNBKNBKNBKNBKN
FltCat--VFRVFRVFRVFRMVFRMVFRMVFRMVFRMVFRMVFRMVFRMVFRMVFR
WX----------------------------
WDir280290VRBVRBVRBVRBVRBVRBVRBVRBVRBVRBVRBVRB
WSpd89444333333333
WGst----------------------------
R09/27
XWnd-11VRBVRBVRBVRBVRBVRBVRBVRBVRBVRBVRBVRB
HWnd-8-9VRBVRBVRBVRBVRBVRBVRBVRBVRBVRBVRBVRB
Raw TAF
KSAN 252337Z 2600/2706 29009KT P6SM FEW015
  FM260200 VRB04KT P6SM SCT015
  FM260500 VRB03KT P6SM BKN017
  FM261800 29006KT P6SM SCT022
  FM262000 29010KT P6SM FEW022
  FM270100 VRB05KT P6SM FEW022


Raw METAR
KSAN 252351Z 28008KT 10SM FEW017 SCT100 SCT200 23/17 A3001 RMK AO2 SLP163 T02330167 10250 20228 56007 $

TAF Board Legend

Hazard VFR MVFR IFR LIFR
Visibility (sm) >5 3≤X≤5 1≤X<3 <1
Ceiling (100 ft) >30 10≤X≤30 5≤X<10 <5
Wind Speed (kt) <10 10≤X<20 20≤X<30 ≥30
Wind Gust (kt) <15 15≤X<25 25≤X<35 ≥35
Weather No Wx Reported VCTS,-TS,-FZRA TS,FZRA +TS,+FZRA


Page loaded:  00:17 UTC  |   05:17 PM Pacific  |   06:17 PM Mountain  |   07:17 PM Central  |   08:17 PM Eastern

 

ADVISORIES

FORECASTS

FORECASTS

OBSERVATIONS

USER TOOLS

ABOUT US